createdAt,value
2022-12-04T00:01:14.196Z,101241.00
2022-12-04T00:03:42.009Z,101236.00
2022-12-04T00:06:11.635Z,101236.00
2022-12-04T00:08:39.877Z,101236.00
2022-12-04T00:11:10.844Z,101236.00
2022-12-04T00:13:40.006Z,101238.00
2022-12-04T00:16:09.523Z,101219.00
2022-12-04T00:18:37.308Z,101214.00
2022-12-04T00:21:06.103Z,101235.00
2022-12-04T00:23:34.170Z,101243.00
2022-12-04T00:26:02.214Z,101239.00
2022-12-04T00:28:31.258Z,101233.00
2022-12-04T00:30:58.986Z,101234.00
2022-12-04T00:33:26.853Z,101223.00
2022-12-04T00:35:58.742Z,101236.00
2022-12-04T00:38:26.477Z,101237.00
2022-12-04T00:40:54.796Z,101236.00
2022-12-04T00:43:23.983Z,101228.00
2022-12-04T00:45:53.286Z,101221.00
2022-12-04T00:48:21.052Z,101233.00
2022-12-04T00:50:48.820Z,101220.00
2022-12-04T00:53:17.897Z,101222.00
2022-12-04T00:55:45.864Z,101217.00
2022-12-04T00:58:14.038Z,101213.00
2022-12-04T01:00:43.218Z,101229.00
2022-12-04T01:03:12.605Z,101211.00
2022-12-04T01:05:41.257Z,101233.00
2022-12-04T01:08:09.476Z,101227.00
2022-12-04T01:10:39.199Z,101226.00
2022-12-04T01:13:06.889Z,101221.00
2022-12-04T01:15:35.067Z,101223.00
2022-12-04T01:18:02.749Z,101230.00
2022-12-04T01:20:31.994Z,101220.00
2022-12-04T01:22:59.836Z,101157.00
2022-12-04T01:25:27.682Z,101167.00
2022-12-04T01:27:55.574Z,101226.00
2022-12-04T01:30:58.956Z,101163.00
2022-12-04T01:33:34.809Z,101207.00
2022-12-04T01:36:05.733Z,101214.00
2022-12-04T01:38:34.559Z,101168.00
2022-12-04T01:41:02.626Z,101197.00
2022-12-04T01:43:32.720Z,101164.00
2022-12-04T01:46:01.631Z,101158.00
2022-12-04T01:48:32.521Z,101172.00
2022-12-04T01:51:08.153Z,101194.00
2022-12-04T01:53:37.531Z,101185.00
2022-12-04T01:56:06.230Z,101178.00
2022-12-04T01:58:37.845Z,101207.00
2022-12-04T02:01:09.044Z,101222.00
2022-12-04T02:03:37.475Z,101209.00
2022-12-04T02:06:07.881Z,101212.00
2022-12-04T02:08:37.149Z,101217.00
2022-12-04T02:11:14.883Z,101193.00
2022-12-04T02:13:54.679Z,101201.00
2022-12-04T02:16:30.373Z,101201.00
2022-12-04T02:19:05.919Z,101198.00
2022-12-04T02:21:39.003Z,101196.00
2022-12-04T02:24:32.867Z,101198.00
2022-12-04T02:27:04.489Z,101170.00
2022-12-04T02:29:40.384Z,101180.00
2022-12-04T02:32:18.644Z,101176.00
2022-12-04T02:34:54.239Z,101123.00
2022-12-04T02:37:26.940Z,101127.00
2022-12-04T02:40:00.770Z,101162.00
2022-12-04T02:42:39.488Z,101171.00
2022-12-04T02:45:12.839Z,101168.00
2022-12-04T02:47:43.011Z,101184.00
2022-12-04T02:50:14.561Z,101132.00
2022-12-04T02:52:45.217Z,101148.00
2022-12-04T02:55:17.534Z,101127.00
2022-12-04T02:57:52.433Z,101183.00
2022-12-04T03:00:23.223Z,101175.00
2022-12-04T03:02:56.760Z,101178.00
2022-12-04T03:05:30.742Z,101174.00
2022-12-04T03:08:03.914Z,101157.00
2022-12-04T03:10:35.814Z,101170.00
2022-12-04T03:13:09.009Z,101169.00
2022-12-04T03:15:42.696Z,101149.00
2022-12-04T03:18:15.826Z,101179.00
2022-12-04T03:20:44.533Z,101178.00
2022-12-04T03:23:15.782Z,101133.00
2022-12-04T03:25:48.329Z,101185.00
2022-12-04T03:28:23.884Z,101163.00
2022-12-04T03:30:59.740Z,101130.00
2022-12-04T03:33:33.358Z,101155.00
2022-12-04T03:36:06.655Z,101166.00
2022-12-04T03:38:39.900Z,101175.00
2022-12-04T03:41:15.154Z,101177.00
2022-12-04T03:43:49.971Z,101131.00
2022-12-04T03:46:27.333Z,101175.00
2022-12-04T03:49:00.737Z,101101.00
2022-12-04T03:51:34.524Z,101167.00
2022-12-04T03:54:06.268Z,101156.00
2022-12-04T03:56:37.734Z,101145.00
2022-12-04T03:59:11.018Z,101156.00
2022-12-04T04:01:46.180Z,101141.00
2022-12-04T04:04:19.021Z,101117.00
2022-12-04T04:06:50.699Z,101166.00
2022-12-04T04:09:22.989Z,101152.00
2022-12-04T04:11:58.008Z,101153.00
2022-12-04T04:14:47.934Z,101172.00
2022-12-04T04:17:38.681Z,101164.00
2022-12-04T04:20:30.807Z,101175.00
2022-12-04T04:23:17.983Z,101114.00
2022-12-04T04:25:48.491Z,101121.00
2022-12-04T04:28:34.041Z,101124.00
2022-12-04T04:31:08.405Z,101159.00
2022-12-04T04:33:45.840Z,101164.00
2022-12-04T04:36:19.587Z,101120.00
2022-12-04T04:38:56.924Z,101159.00
2022-12-04T04:41:33.017Z,101149.00
2022-12-04T04:44:07.023Z,101132.00
2022-12-04T04:46:39.373Z,101123.00
2022-12-04T04:49:11.797Z,101143.00
2022-12-04T04:51:39.949Z,101125.00
2022-12-04T04:54:11.484Z,101106.00
2022-12-04T04:56:45.428Z,101166.00
2022-12-04T04:59:14.419Z,101152.00
2022-12-04T05:01:44.533Z,101110.00
2022-12-04T05:04:14.134Z,101161.00
2022-12-04T05:06:42.078Z,101134.00
2022-12-04T05:09:11.034Z,101170.00
2022-12-04T05:11:47.263Z,101163.00
2022-12-04T05:14:15.165Z,101156.00
2022-12-04T05:16:43.245Z,101152.00
2022-12-04T05:19:28.496Z,101174.00
2022-12-04T05:22:09.129Z,101144.00
2022-12-04T05:25:34.816Z,101142.00
2022-12-04T05:28:36.302Z,101187.00
2022-12-04T05:31:34.191Z,101152.00
2022-12-04T05:34:11.110Z,101190.00
2022-12-04T05:36:51.956Z,101179.00
2022-12-04T05:39:24.263Z,101155.00
2022-12-04T05:41:57.871Z,101177.00
2022-12-04T05:44:26.310Z,101175.00
2022-12-04T05:46:54.222Z,101179.00
2022-12-04T05:49:56.445Z,101162.00
2022-12-04T05:52:38.433Z,101124.00
2022-12-04T05:55:09.759Z,101141.00
2022-12-04T05:58:08.323Z,101177.00
2022-12-04T06:00:51.843Z,101149.00
2022-12-04T06:03:49.622Z,101171.00
2022-12-04T06:06:22.827Z,101174.00
2022-12-04T06:08:59.550Z,101161.00
2022-12-04T06:11:30.570Z,101186.00
2022-12-04T06:13:59.733Z,101181.00
2022-12-04T06:16:29.140Z,101184.00
2022-12-04T06:18:58.681Z,101144.00
2022-12-04T06:21:29.155Z,101142.00
2022-12-04T06:23:57.060Z,101183.00
2022-12-04T06:26:25.763Z,101184.00
2022-12-04T06:28:56.833Z,101170.00
2022-12-04T06:31:26.258Z,101162.00
2022-12-04T06:33:54.657Z,101186.00
2022-12-04T06:36:24.041Z,101196.00
2022-12-04T06:38:55.715Z,101173.00
2022-12-04T06:41:24.951Z,101169.00
2022-12-04T06:43:53.381Z,101131.00
2022-12-04T06:46:24.997Z,101176.00
2022-12-04T06:48:53.364Z,101145.00
2022-12-04T06:51:23.243Z,101184.00
2022-12-04T06:53:51.207Z,101187.00
2022-12-04T06:56:21.184Z,101201.00
2022-12-04T06:58:50.769Z,101198.00
2022-12-04T07:01:23.082Z,101175.00
2022-12-04T07:03:51.918Z,101172.00
2022-12-04T07:06:21.850Z,101203.00
2022-12-04T07:08:54.153Z,101199.00
2022-12-04T07:11:23.124Z,101196.00
2022-12-04T07:13:53.464Z,101199.00
2022-12-04T07:16:23.993Z,101149.00
2022-12-04T07:18:53.681Z,101183.00
2022-12-04T07:21:24.105Z,101207.00
2022-12-04T07:23:57.359Z,101164.00
2022-12-04T07:26:29.725Z,101205.00
2022-12-04T07:28:58.375Z,101160.00
2022-12-04T07:31:29.381Z,101198.00
2022-12-04T07:34:00.507Z,101193.00
2022-12-04T07:36:31.273Z,101158.00
2022-12-04T07:38:59.147Z,101187.00
2022-12-04T07:41:37.069Z,101131.00
2022-12-04T07:44:08.017Z,101189.00
2022-12-04T07:46:37.276Z,101194.00
2022-12-04T07:49:27.570Z,101194.00
2022-12-04T07:52:00.390Z,101172.00
2022-12-04T07:54:28.404Z,101150.00
2022-12-04T07:56:56.691Z,101184.00
2022-12-04T07:59:27.748Z,101175.00
2022-12-04T08:01:58.837Z,101217.00
2022-12-04T08:04:26.968Z,101164.00
2022-12-04T08:06:54.957Z,101174.00
2022-12-04T08:09:50.843Z,101187.00
2022-12-04T08:13:00.041Z,101154.00
2022-12-04T08:15:45.548Z,101192.00
2022-12-04T08:18:42.259Z,101163.00
2022-12-04T08:21:13.908Z,101182.00
2022-12-04T08:23:44.234Z,101153.00
2022-12-04T08:26:13.185Z,101176.00
2022-12-04T08:28:41.263Z,101188.00
2022-12-04T08:31:12.037Z,101204.00
2022-12-04T08:33:46.155Z,101170.00
2022-12-04T08:36:20.724Z,101216.00
2022-12-04T08:39:17.121Z,101155.00
2022-12-04T08:41:45.282Z,101154.00
2022-12-04T08:44:17.917Z,101196.00
2022-12-04T08:46:45.840Z,101213.00
2022-12-04T08:49:15.181Z,101195.00
2022-12-04T08:51:43.181Z,101127.00
2022-12-04T08:54:14.359Z,101158.00
2022-12-04T08:56:44.463Z,101157.00
2022-12-04T08:59:14.159Z,101137.00
2022-12-04T09:02:02.289Z,101160.00
2022-12-04T09:04:31.937Z,101189.00
2022-12-04T09:07:00.203Z,101192.00
2022-12-04T09:09:28.068Z,101155.00
2022-12-04T09:11:56.186Z,101175.00
2022-12-04T09:14:26.044Z,101187.00
2022-12-04T09:16:54.221Z,101181.00
2022-12-04T09:19:22.167Z,101136.00
2022-12-04T09:21:51.356Z,101214.00
2022-12-04T09:24:19.336Z,101208.00
2022-12-04T09:26:47.175Z,101167.00
2022-12-04T09:29:15.562Z,101200.00
2022-12-04T09:31:43.638Z,101169.00
2022-12-04T09:34:13.831Z,101204.00
2022-12-04T09:36:41.624Z,101191.00
2022-12-04T09:39:11.642Z,101192.00
2022-12-04T09:41:58.275Z,101164.00
2022-12-04T09:44:30.752Z,101194.00
2022-12-04T09:47:01.791Z,101197.00
2022-12-04T09:49:37.795Z,101193.00
2022-12-04T09:52:10.788Z,101140.00
2022-12-04T09:54:43.620Z,101160.00
2022-12-04T09:57:17.452Z,101195.00
2022-12-04T09:59:46.645Z,101185.00
2022-12-04T10:02:33.733Z,101188.00
2022-12-04T10:05:01.983Z,101178.00
2022-12-04T10:07:34.549Z,101181.00
2022-12-04T10:10:07.283Z,101189.00
2022-12-04T10:12:49.436Z,101190.00
2022-12-04T10:15:28.469Z,101204.00
2022-12-04T10:18:07.282Z,101190.00
2022-12-04T10:21:04.311Z,101186.00
2022-12-04T10:23:42.555Z,101157.00
2022-12-04T10:26:16.222Z,101119.00
2022-12-04T10:28:54.885Z,101179.00
2022-12-04T10:31:23.250Z,101173.00
2022-12-04T10:33:54.337Z,101173.00
2022-12-04T10:36:25.411Z,101149.00
2022-12-04T10:38:57.428Z,101190.00
2022-12-04T10:41:30.879Z,101178.00
2022-12-04T10:43:58.639Z,101182.00
2022-12-04T10:46:28.871Z,101176.00
2022-12-04T10:49:00.632Z,101149.00
2022-12-04T10:51:39.196Z,101169.00
2022-12-04T10:54:17.327Z,101155.00
2022-12-04T10:56:53.980Z,101178.00
2022-12-04T10:59:22.200Z,101176.00
2022-12-04T11:01:51.319Z,101172.00
2022-12-04T11:04:24.983Z,101173.00
2022-12-04T11:07:01.623Z,101170.00
2022-12-04T11:09:30.466Z,101160.00
2022-12-04T11:12:09.764Z,101173.00
2022-12-04T11:14:37.707Z,101147.00
2022-12-04T11:17:07.543Z,101151.00
2022-12-04T11:19:36.911Z,101162.00
2022-12-04T11:22:15.927Z,101154.00
2022-12-04T11:24:50.502Z,101137.00
2022-12-04T11:27:23.550Z,101135.00
2022-12-04T11:29:52.869Z,101104.00
2022-12-04T11:32:24.142Z,101138.00
2022-12-04T11:34:55.621Z,101121.00
2022-12-04T11:37:27.665Z,101139.00
2022-12-04T11:39:56.583Z,101141.00
2022-12-04T11:42:27.906Z,101144.00
2022-12-04T11:45:33.077Z,101083.00
2022-12-04T11:48:03.830Z,101153.00
2022-12-04T11:50:40.486Z,101134.00
2022-12-04T11:53:16.669Z,101121.00
2022-12-04T11:55:54.076Z,101133.00
2022-12-04T11:58:47.404Z,101110.00
2022-12-04T12:01:28.056Z,101139.00
2022-12-04T12:04:21.411Z,101126.00
2022-12-04T12:07:05.208Z,101111.00
2022-12-04T12:09:43.226Z,101155.00
2022-12-04T12:12:18.638Z,101127.00
2022-12-04T12:15:00.768Z,101122.00
2022-12-04T12:17:43.606Z,101132.00
2022-12-04T12:20:22.985Z,101119.00
2022-12-04T12:23:08.488Z,101089.00
2022-12-04T12:25:50.417Z,101086.00
2022-12-04T12:28:37.811Z,101124.00
2022-12-04T12:31:29.773Z,101133.00
2022-12-04T12:34:21.328Z,101081.00
2022-12-04T12:37:20.575Z,101127.00
2022-12-04T12:40:21.677Z,101128.00
2022-12-04T12:43:01.822Z,101123.00
2022-12-04T12:45:37.409Z,101070.00
2022-12-04T12:48:13.994Z,101106.00
2022-12-04T12:50:49.385Z,101066.00
2022-12-04T12:53:28.162Z,101048.00
2022-12-04T12:56:20.392Z,101102.00
2022-12-04T12:58:54.326Z,101100.00
2022-12-04T13:01:29.867Z,101108.00
2022-12-04T13:04:04.326Z,101049.00
2022-12-04T13:07:12.005Z,101052.00
2022-12-04T13:09:46.601Z,101057.00
2022-12-04T13:12:17.578Z,101083.00
2022-12-04T13:14:49.045Z,101075.00
2022-12-04T13:17:21.481Z,101074.00
2022-12-04T13:19:57.469Z,101061.00
2022-12-04T13:22:31.050Z,101061.00
2022-12-04T13:25:12.120Z,101071.00
2022-12-04T13:27:51.321Z,101074.00
2022-12-04T13:30:21.334Z,101082.00
2022-12-04T13:33:19.618Z,101069.00
2022-12-04T13:36:03.668Z,101041.00
2022-12-04T13:38:39.696Z,101064.00
2022-12-04T13:41:10.332Z,101075.00
2022-12-04T13:43:47.117Z,101071.00
2022-12-04T13:46:31.630Z,101079.00
2022-12-04T13:49:09.724Z,101061.00
2022-12-04T13:51:41.250Z,101058.00
2022-12-04T13:54:30.724Z,101066.00
2022-12-04T13:57:10.866Z,101063.00
2022-12-04T13:59:41.006Z,100999.00
2022-12-04T14:02:25.351Z,101060.00
2022-12-04T14:04:57.380Z,101058.00
2022-12-04T14:07:30.573Z,101055.00
2022-12-04T14:10:01.920Z,101018.00
2022-12-04T14:12:58.620Z,101058.00
2022-12-04T14:15:29.952Z,101001.00
2022-12-04T14:18:01.545Z,100998.00
2022-12-04T14:20:34.134Z,101052.00
2022-12-04T14:27:51.720Z,101010.00
2022-12-04T14:30:22.912Z,100962.00
2022-12-04T14:33:02.895Z,101023.00
2022-12-04T14:35:30.918Z,101018.00
2022-12-04T14:38:02.637Z,101035.00
2022-12-04T14:40:37.420Z,101045.00
2022-12-04T14:43:26.428Z,101019.00
2022-12-04T14:46:27.186Z,101032.00
2022-12-04T14:49:00.999Z,100992.00
2022-12-04T14:51:34.918Z,101030.00
2022-12-04T14:54:14.050Z,101029.00
2022-12-04T14:57:14.132Z,101029.00
2022-12-04T14:59:49.365Z,101022.00
2022-12-04T15:02:19.845Z,101043.00
2022-12-04T15:04:49.404Z,101017.00
2022-12-04T15:07:22.601Z,101031.00
2022-12-04T15:10:13.111Z,101015.00
2022-12-04T15:12:46.027Z,101052.00
2022-12-04T15:15:22.276Z,101032.00
2022-12-04T15:18:17.578Z,101035.00
2022-12-04T15:20:57.214Z,101005.00
2022-12-04T15:23:33.426Z,101030.00
2022-12-04T15:26:08.001Z,101041.00
2022-12-04T15:28:42.218Z,101039.00
2022-12-04T15:31:16.478Z,101021.00
2022-12-04T15:33:47.143Z,101019.00
2022-12-04T15:36:19.089Z,101032.00
2022-12-04T15:38:48.959Z,101032.00
2022-12-04T15:41:32.496Z,101027.00
2022-12-04T15:44:00.639Z,101017.00
2022-12-04T15:46:36.023Z,101019.00
2022-12-04T15:49:27.228Z,101048.00
2022-12-04T15:52:06.039Z,101038.00
2022-12-04T15:54:43.063Z,101044.00
2022-12-04T15:57:33.831Z,101044.00
2022-12-04T16:00:11.878Z,101058.00
2022-12-04T16:03:03.353Z,101067.00
2022-12-04T16:05:53.142Z,101001.00
2022-12-04T16:08:31.415Z,101033.00
2022-12-04T16:11:19.664Z,101034.00
2022-12-04T16:13:49.528Z,101003.00
2022-12-04T16:16:31.953Z,101006.00
2022-12-04T16:19:05.467Z,101020.00
2022-12-04T16:21:33.298Z,101053.00
2022-12-04T16:24:05.595Z,101014.00
2022-12-04T16:26:55.750Z,101065.00
2022-12-04T16:29:24.143Z,101011.00
2022-12-04T16:31:52.478Z,101054.00
2022-12-04T16:34:21.908Z,101059.00
2022-12-04T16:37:21.994Z,101057.00
2022-12-04T16:39:52.427Z,101062.00
2022-12-04T16:42:22.790Z,101017.00
2022-12-04T16:44:51.215Z,101057.00
2022-12-04T16:47:19.651Z,101058.00
2022-12-04T16:49:51.306Z,101071.00
2022-12-04T16:52:20.462Z,101074.00
2022-12-04T16:54:48.790Z,101049.00
2022-12-04T16:57:16.734Z,101005.00
2022-12-04T16:59:44.712Z,101066.00
2022-12-04T17:02:21.633Z,101077.00
2022-12-04T17:04:57.003Z,101077.00
2022-12-04T17:07:25.913Z,101071.00
2022-12-04T17:09:53.858Z,101080.00
2022-12-04T17:12:21.702Z,101056.00
2022-12-04T17:14:49.722Z,101079.00
2022-12-04T17:17:17.575Z,101052.00
2022-12-04T17:19:46.556Z,101075.00
2022-12-04T17:22:16.375Z,101040.00
2022-12-04T17:24:50.319Z,101075.00
2022-12-04T17:27:20.971Z,101081.00
2022-12-04T17:29:49.272Z,101074.00
2022-12-04T17:32:17.390Z,101086.00
2022-12-04T17:34:45.283Z,101038.00
2022-12-04T17:37:13.014Z,101063.00
2022-12-04T17:39:42.105Z,101064.00
2022-12-04T17:42:09.959Z,101049.00
2022-12-04T17:44:37.816Z,101063.00
2022-12-04T17:47:06.227Z,101049.00
2022-12-04T17:49:40.474Z,101039.00
2022-12-04T17:53:11.829Z,101036.00
2022-12-04T17:55:41.308Z,101056.00
2022-12-04T17:58:09.111Z,101087.00
2022-12-04T18:00:37.681Z,101083.00
2022-12-04T18:03:05.683Z,101078.00
2022-12-04T18:05:33.535Z,101074.00
2022-12-04T18:08:03.555Z,101074.00
2022-12-04T18:10:31.534Z,101073.00
2022-12-04T18:13:00.785Z,101075.00
2022-12-04T18:15:28.549Z,101055.00
2022-12-04T18:18:47.744Z,101077.00
2022-12-04T18:21:23.351Z,101093.00
2022-12-04T18:31:42.923Z,101085.00
2022-12-04T18:38:39.792Z,101046.00
2022-12-04T18:41:17.213Z,101016.00
2022-12-04T18:43:59.686Z,101079.00
2022-12-04T18:46:43.377Z,101087.00
2022-12-04T18:49:12.021Z,101070.00
2022-12-04T18:51:41.331Z,101063.00
2022-12-04T18:54:12.134Z,101064.00
2022-12-04T18:56:40.843Z,101014.00
2022-12-04T18:59:11.245Z,101012.00
2022-12-04T19:02:27.985Z,101057.00
2022-12-04T19:08:35.700Z,101068.00
2022-12-04T19:08:43.274Z,101017.00
2022-12-04T19:11:23.128Z,101025.00
2022-12-04T19:14:00.817Z,101027.00
2022-12-04T19:17:10.926Z,101032.00
2022-12-04T19:19:44.718Z,101067.00
2022-12-04T19:22:25.280Z,101075.00
2022-12-04T19:29:16.515Z,101078.00
2022-12-04T19:31:57.617Z,101061.00
2022-12-04T19:34:28.543Z,101066.00
2022-12-04T19:37:06.357Z,101061.00
2022-12-04T19:39:49.413Z,101063.00
2022-12-04T19:42:39.937Z,101074.00
2022-12-04T19:45:37.235Z,100993.00
2022-12-04T19:48:12.475Z,101070.00
2022-12-04T19:50:42.630Z,101059.00
2022-12-04T19:53:10.842Z,101052.00
2022-12-04T19:55:43.191Z,101010.00
2022-12-04T19:58:11.098Z,101064.00
2022-12-04T20:00:56.899Z,101044.00
2022-12-04T20:03:24.943Z,101064.00
2022-12-04T20:06:03.541Z,101057.00
2022-12-04T20:08:31.738Z,101075.00
2022-12-04T20:11:03.279Z,101061.00
2022-12-04T20:13:31.085Z,101054.00
2022-12-04T20:16:05.910Z,101051.00
2022-12-04T20:18:34.400Z,101071.00
2022-12-04T20:21:04.907Z,101036.00
2022-12-04T20:23:32.734Z,101065.00
2022-12-04T20:26:05.015Z,101066.00
2022-12-04T20:28:32.995Z,101056.00
2022-12-04T20:31:01.007Z,101055.00
2022-12-04T20:33:28.848Z,101026.00
2022-12-04T20:35:56.837Z,101059.00
2022-12-04T20:38:26.141Z,101054.00
2022-12-04T20:40:53.881Z,101038.00
2022-12-04T20:43:21.706Z,101054.00
2022-12-04T20:45:49.605Z,101055.00
2022-12-04T20:48:17.634Z,101053.00
2022-12-04T20:50:46.097Z,101061.00
2022-12-04T20:53:58.089Z,101068.00
2022-12-04T20:56:30.061Z,101021.00
2022-12-04T20:58:59.225Z,101047.00
2022-12-04T21:01:29.915Z,101055.00
2022-12-04T21:04:01.941Z,101079.00
2022-12-04T21:06:34.915Z,101006.00
2022-12-04T21:09:05.796Z,101015.00
2022-12-04T21:12:32.389Z,101021.00
2022-12-04T21:15:32.740Z,101049.00
2022-12-04T21:18:29.288Z,101011.00
2022-12-04T21:20:59.829Z,100979.00
2022-12-04T21:23:27.666Z,101049.00
2022-12-04T21:25:56.651Z,101036.00
2022-12-04T21:28:25.897Z,100982.00
2022-12-04T21:30:53.882Z,101031.00
2022-12-04T21:33:21.825Z,100982.00
2022-12-04T21:35:49.617Z,100989.00
2022-12-04T21:38:17.444Z,101030.00
2022-12-04T21:40:48.881Z,100971.00
2022-12-04T21:43:16.722Z,100979.00
2022-12-04T21:45:46.606Z,101010.00
2022-12-04T21:48:14.499Z,101021.00
2022-12-04T21:50:42.322Z,101028.00
2022-12-04T21:53:10.104Z,101021.00
2022-12-04T21:55:38.076Z,101027.00
2022-12-04T21:58:05.897Z,101003.00
2022-12-04T22:00:33.761Z,101014.00
2022-12-04T22:03:03.249Z,100960.00
2022-12-04T22:05:32.722Z,101002.00
2022-12-04T22:08:00.677Z,101004.00
2022-12-04T22:10:28.645Z,101012.00
2022-12-04T22:12:56.447Z,101015.00
2022-12-04T22:15:24.319Z,101014.00
2022-12-04T22:17:52.301Z,101010.00
2022-12-04T22:20:22.795Z,101021.00
2022-12-04T22:22:50.614Z,100995.00
2022-12-04T22:25:18.580Z,101028.00
2022-12-04T22:27:46.362Z,100986.00
2022-12-04T22:30:14.709Z,101021.00
2022-12-04T22:32:42.681Z,101024.00
2022-12-04T22:35:11.033Z,101021.00
2022-12-04T22:37:44.340Z,101030.00
2022-12-04T22:40:13.968Z,101035.00
2022-12-04T22:42:41.783Z,101021.00
2022-12-04T22:45:10.377Z,101035.00
2022-12-04T22:47:38.666Z,100995.00
2022-12-04T22:50:07.902Z,101020.00
2022-12-04T22:52:35.747Z,101017.00
2022-12-04T22:55:06.063Z,101000.00
2022-12-04T22:57:35.275Z,101012.00
2022-12-04T23:00:04.156Z,100979.00
2022-12-04T23:02:31.969Z,101022.00
2022-12-04T23:04:59.904Z,100956.00
2022-12-04T23:07:27.834Z,101010.00
2022-12-04T23:09:57.409Z,100967.00
2022-12-04T23:12:28.782Z,101011.00
2022-12-04T23:14:56.624Z,101008.00
2022-12-04T23:17:24.446Z,101008.00
2022-12-04T23:19:52.349Z,100970.00
2022-12-04T23:22:20.244Z,100989.00
2022-12-04T23:24:48.224Z,100964.00
2022-12-04T23:27:15.977Z,101007.00
2022-12-04T23:29:53.223Z,101010.00
2022-12-04T23:32:21.483Z,100957.00
2022-12-04T23:34:49.383Z,100981.00
2022-12-04T23:37:17.307Z,101014.00
2022-12-04T23:39:45.425Z,101009.00
2022-12-04T23:42:13.285Z,101006.00
2022-12-04T23:44:41.139Z,100998.00
2022-12-04T23:47:23.313Z,100977.00
2022-12-04T23:50:00.151Z,101004.00
2022-12-04T23:52:48.417Z,101006.00
2022-12-04T23:55:16.520Z,101001.00
2022-12-04T23:57:44.349Z,100973.00
